sensor_id;sensor_type;location;lat;lon;timestamp;P1;durP1;ratioP1;P2;durP2;ratioP2
75526;SDS011;64107;49.248;7.006;2023-02-01T00:01:37;8.15;;;4.88;;
75526;SDS011;64107;49.248;7.006;2023-02-01T00:06:30;9.40;;;3.75;;
75526;SDS011;64107;49.248;7.006;2023-02-01T00:11:22;2.60;;;2.03;;
75526;SDS011;64107;49.248;7.006;2023-02-01T00:13:49;4.35;;;2.30;;
75526;SDS011;64107;49.248;7.006;2023-02-01T00:16:16;4.70;;;2.20;;
75526;SDS011;64107;49.248;7.006;2023-02-01T00:18:49;3.08;;;2.47;;
75526;SDS011;64107;49.248;7.006;2023-02-01T00:21:17;8.55;;;4.30;;
75526;SDS011;64107;49.248;7.006;2023-02-01T00:23:45;1.58;;;1.48;;
75526;SDS011;64107;49.248;7.006;2023-02-01T00:26:15;4.35;;;2.63;;
75526;SDS011;64107;49.248;7.006;2023-02-01T00:28:43;6.05;;;2.80;;
75526;SDS011;64107;49.248;7.006;2023-02-01T00:31:09;4.03;;;3.13;;
75526;SDS011;64107;49.248;7.006;2023-02-01T00:36:03;4.28;;;2.22;;
75526;SDS011;64107;49.248;7.006;2023-02-01T00:38:31;7.50;;;3.45;;
75526;SDS011;64107;49.248;7.006;2023-02-01T00:41:04;7.82;;;2.50;;
75526;SDS011;64107;49.248;7.006;2023-02-01T00:43:32;5.53;;;2.55;;
75526;SDS011;64107;49.248;7.006;2023-02-01T00:45:58;6.15;;;3.33;;
75526;SDS011;64107;49.248;7.006;2023-02-01T00:48:24;7.93;;;4.65;;
75526;SDS011;64107;49.248;7.006;2023-02-01T00:50:51;4.50;;;2.65;;
75526;SDS011;64107;49.248;7.006;2023-02-01T00:53:17;5.60;;;2.08;;
75526;SDS011;64107;49.248;7.006;2023-02-01T00:55:46;8.32;;;4.35;;
75526;SDS011;64107;49.248;7.006;2023-02-01T00:58:13;6.85;;;3.47;;
75526;SDS011;64107;49.248;7.006;2023-02-01T01:00:39;8.85;;;5.32;;
75526;SDS011;64107;49.248;7.006;2023-02-01T01:03:05;3.30;;;2.83;;
75526;SDS011;64107;49.248;7.006;2023-02-01T01:05:45;5.35;;;3.72;;
75526;SDS011;64107;49.248;7.006;2023-02-01T01:08:12;11.07;;;6.13;;
75526;SDS011;64107;49.248;7.006;2023-02-01T01:10:39;10.85;;;6.00;;
75526;SDS011;64107;49.248;7.006;2023-02-01T01:15:35;9.32;;;6.05;;
75526;SDS011;64107;49.248;7.006;2023-02-01T01:18:04;7.15;;;3.08;;
75526;SDS011;64107;49.248;7.006;2023-02-01T01:20:30;9.52;;;4.65;;
75526;SDS011;64107;49.248;7.006;2023-02-01T01:22:58;6.38;;;3.67;;
75526;SDS011;64107;49.248;7.006;2023-02-01T01:27:50;6.78;;;3.67;;
75526;SDS011;64107;49.248;7.006;2023-02-01T01:32:42;16.48;;;7.97;;
75526;SDS011;64107;49.248;7.006;2023-02-01T01:35:09;12.15;;;6.97;;
75526;SDS011;64107;49.248;7.006;2023-02-01T01:37:35;8.48;;;5.50;;
75526;SDS011;64107;49.248;7.006;2023-02-01T01:40:03;7.05;;;4.00;;
75526;SDS011;64107;49.248;7.006;2023-02-01T01:42:30;7.38;;;4.18;;
75526;SDS011;64107;49.248;7.006;2023-02-01T01:45:05;9.68;;;6.32;;
75526;SDS011;64107;49.248;7.006;2023-02-01T01:47:37;8.18;;;3.30;;
75526;SDS011;64107;49.248;7.006;2023-02-01T01:50:14;8.60;;;3.75;;
75526;SDS011;64107;49.248;7.006;2023-02-01T01:52:43;14.65;;;5.97;;
75526;SDS011;64107;49.248;7.006;2023-02-01T01:55:11;9.07;;;4.07;;
75526;SDS011;64107;49.248;7.006;2023-02-01T01:57:40;12.27;;;5.18;;
75526;SDS011;64107;49.248;7.006;2023-02-01T02:02:35;9.95;;;3.97;;
75526;SDS011;64107;49.248;7.006;2023-02-01T02:05:02;13.15;;;5.43;;
75526;SDS011;64107;49.248;7.006;2023-02-01T02:07:30;9.52;;;3.83;;
75526;SDS011;64107;49.248;7.006;2023-02-01T02:09:59;4.45;;;2.78;;
75526;SDS011;64107;49.248;7.006;2023-02-01T02:12:30;7.72;;;3.50;;
75526;SDS011;64107;49.248;7.006;2023-02-01T02:14:56;10.18;;;4.03;;
75526;SDS011;64107;49.248;7.006;2023-02-01T02:38:45;9.85;;;3.65;;
75526;SDS011;64107;49.248;7.006;2023-02-01T02:41:29;10.35;;;3.90;;
75526;SDS011;64107;49.248;7.006;2023-02-01T02:47:51;7.18;;;2.47;;
75526;SDS011;64107;49.248;7.006;2023-02-01T02:50:29;5.38;;;2.88;;
75526;SDS011;64107;49.248;7.006;2023-02-01T02:53:28;6.18;;;4.05;;
75526;SDS011;64107;49.248;7.006;2023-02-01T02:56:26;6.65;;;3.80;;
75526;SDS011;64107;49.248;7.006;2023-02-01T02:59:12;9.82;;;4.47;;
75526;SDS011;64107;49.248;7.006;2023-02-01T03:01:59;9.90;;;3.47;;
75526;SDS011;64107;49.248;7.006;2023-02-01T03:04:43;8.98;;;4.10;;
75526;SDS011;64107;49.248;7.006;2023-02-01T03:07:14;11.57;;;6.25;;
75526;SDS011;64107;49.248;7.006;2023-02-01T03:10:03;9.90;;;5.88;;
75526;SDS011;64107;49.248;7.006;2023-02-01T03:12:32;12.68;;;5.88;;
75526;SDS011;64107;49.248;7.006;2023-02-01T03:15:20;10.10;;;4.90;;
75526;SDS011;64107;49.248;7.006;2023-02-01T03:17:49;10.07;;;4.53;;
75526;SDS011;64107;49.248;7.006;2023-02-01T03:20:16;9.05;;;4.65;;
75526;SDS011;64107;49.248;7.006;2023-02-01T03:22:47;4.43;;;2.85;;
75526;SDS011;64107;49.248;7.006;2023-02-01T03:25:15;7.93;;;3.60;;
75526;SDS011;64107;49.248;7.006;2023-02-01T03:27:51;8.00;;;2.15;;
75526;SDS011;64107;49.248;7.006;2023-02-01T03:30:24;13.55;;;6.90;;
75526;SDS011;64107;49.248;7.006;2023-02-01T03:33:00;8.35;;;4.70;;
75526;SDS011;64107;49.248;7.006;2023-02-01T03:41:35;11.10;;;4.90;;
75526;SDS011;64107;49.248;7.006;2023-02-01T03:46:56;10.70;;;4.47;;
75526;SDS011;64107;49.248;7.006;2023-02-01T03:52:00;6.38;;;3.20;;
75526;SDS011;64107;49.248;7.006;2023-02-01T03:54:28;7.93;;;4.45;;
75526;SDS011;64107;49.248;7.006;2023-02-01T03:56:55;11.18;;;4.40;;
75526;SDS011;64107;49.248;7.006;2023-02-01T03:59:23;8.25;;;2.90;;
75526;SDS011;64107;49.248;7.006;2023-02-01T04:04:15;6.95;;;3.75;;
75526;SDS011;64107;49.248;7.006;2023-02-01T04:06:48;10.80;;;6.22;;
75526;SDS011;64107;49.248;7.006;2023-02-01T04:09:15;13.80;;;6.78;;
75526;SDS011;64107;49.248;7.006;2023-02-01T04:11:41;5.82;;;3.53;;
75526;SDS011;64107;49.248;7.006;2023-02-01T04:14:08;7.22;;;4.20;;
75526;SDS011;64107;49.248;7.006;2023-02-01T04:16:34;12.50;;;5.57;;
75526;SDS011;64107;49.248;7.006;2023-02-01T04:19:01;5.25;;;3.60;;
75526;SDS011;64107;49.248;7.006;2023-02-01T04:23:53;10.85;;;3.83;;
75526;SDS011;64107;49.248;7.006;2023-02-01T04:26:19;9.88;;;4.38;;
75526;SDS011;64107;49.248;7.006;2023-02-01T04:28:46;6.78;;;3.72;;
75526;SDS011;64107;49.248;7.006;2023-02-01T04:31:13;7.43;;;4.80;;
75526;SDS011;64107;49.248;7.006;2023-02-01T04:33:39;13.23;;;5.15;;
75526;SDS011;64107;49.248;7.006;2023-02-01T04:36:06;5.97;;;3.88;;
75526;SDS011;64107;49.248;7.006;2023-02-01T04:38:32;8.77;;;4.13;;
75526;SDS011;64107;49.248;7.006;2023-02-01T04:43:24;10.38;;;4.82;;
75526;SDS011;64107;49.248;7.006;2023-02-01T04:48:16;14.55;;;5.82;;
75526;SDS011;64107;49.248;7.006;2023-02-01T04:50:44;9.43;;;4.50;;
75526;SDS011;64107;49.248;7.006;2023-02-01T04:53:16;11.93;;;6.72;;
75526;SDS011;64107;49.248;7.006;2023-02-01T04:55:43;4.82;;;2.25;;
75526;SDS011;64107;49.248;7.006;2023-02-01T04:58:09;8.85;;;3.53;;
75526;SDS011;64107;49.248;7.006;2023-02-01T05:00:36;10.07;;;4.18;;
75526;SDS011;64107;49.248;7.006;2023-02-01T05:03:02;8.75;;;3.78;;
75526;SDS011;64107;49.248;7.006;2023-02-01T05:05:28;11.80;;;6.78;;
75526;SDS011;64107;49.248;7.006;2023-02-01T05:07:55;9.18;;;4.97;;
75526;SDS011;64107;49.248;7.006;2023-02-01T05:10:21;1.92;;;1.83;;
75526;SDS011;64107;49.248;7.006;2023-02-01T05:12:47;9.60;;;4.43;;
75526;SDS011;64107;49.248;7.006;2023-02-01T05:15:32;9.93;;;2.80;;
75526;SDS011;64107;49.248;7.006;2023-02-01T05:17:58;13.20;;;5.30;;
75526;SDS011;64107;49.248;7.006;2023-02-01T05:22:50;8.25;;;4.60;;
75526;SDS011;64107;49.248;7.006;2023-02-01T05:27:42;16.10;;;6.55;;
75526;SDS011;64107;49.248;7.006;2023-02-01T05:30:09;8.95;;;3.83;;
75526;SDS011;64107;49.248;7.006;2023-02-01T05:32:35;11.45;;;4.93;;
75526;SDS011;64107;49.248;7.006;2023-02-01T05:37:27;11.57;;;4.47;;
75526;SDS011;64107;49.248;7.006;2023-02-01T05:39:53;9.23;;;4.07;;
75526;SDS011;64107;49.248;7.006;2023-02-01T05:44:45;11.68;;;5.18;;
75526;SDS011;64107;49.248;7.006;2023-02-01T05:49:37;5.55;;;3.00;;
75526;SDS011;64107;49.248;7.006;2023-02-01T05:54:29;15.90;;;5.88;;
75526;SDS011;64107;49.248;7.006;2023-02-01T05:59:22;8.82;;;4.63;;
75526;SDS011;64107;49.248;7.006;2023-02-01T06:01:48;16.02;;;3.53;;
75526;SDS011;64107;49.248;7.006;2023-02-01T06:04:14;2.72;;;2.35;;
75526;SDS011;64107;49.248;7.006;2023-02-01T06:06:40;7.78;;;2.22;;
75526;SDS011;64107;49.248;7.006;2023-02-01T06:11:32;1.63;;;1.50;;
75526;SDS011;64107;49.248;7.006;2023-02-01T06:13:58;10.48;;;2.72;;
75526;SDS011;64107;49.248;7.006;2023-02-01T06:16:25;8.57;;;2.55;;
75526;SDS011;64107;49.248;7.006;2023-02-01T06:18:51;5.40;;;2.38;;
75526;SDS011;64107;49.248;7.006;2023-02-01T06:21:17;10.13;;;3.33;;
75526;SDS011;64107;49.248;7.006;2023-02-01T06:23:49;6.82;;;3.65;;
75526;SDS011;64107;49.248;7.006;2023-02-01T06:26:19;9.95;;;2.00;;
75526;SDS011;64107;49.248;7.006;2023-02-01T06:31:11;5.93;;;2.72;;
75526;SDS011;64107;49.248;7.006;2023-02-01T06:33:37;9.05;;;3.63;;
75526;SDS011;64107;49.248;7.006;2023-02-01T06:36:05;8.95;;;2.97;;
75526;SDS011;64107;49.248;7.006;2023-02-01T06:38:32;7.20;;;3.35;;
75526;SDS011;64107;49.248;7.006;2023-02-01T06:40:59;6.55;;;3.15;;
75526;SDS011;64107;49.248;7.006;2023-02-01T06:43:27;9.20;;;4.70;;
75526;SDS011;64107;49.248;7.006;2023-02-01T06:45:53;6.97;;;3.47;;
75526;SDS011;64107;49.248;7.006;2023-02-01T06:48:24;10.70;;;3.70;;
75526;SDS011;64107;49.248;7.006;2023-02-01T06:50:50;7.65;;;3.35;;
75526;SDS011;64107;49.248;7.006;2023-02-01T06:53:16;12.50;;;4.47;;
75526;SDS011;64107;49.248;7.006;2023-02-01T06:55:50;11.18;;;4.35;;
75526;SDS011;64107;49.248;7.006;2023-02-01T06:58:23;9.05;;;3.08;;
75526;SDS011;64107;49.248;7.006;2023-02-01T07:00:52;18.25;;;3.75;;
75526;SDS011;64107;49.248;7.006;2023-02-01T07:03:19;13.98;;;3.58;;
75526;SDS011;64107;49.248;7.006;2023-02-01T07:05:45;2.55;;;1.67;;
75526;SDS011;64107;49.248;7.006;2023-02-01T07:08:11;10.20;;;3.20;;
75526;SDS011;64107;49.248;7.006;2023-02-01T07:13:03;11.25;;;3.53;;
75526;SDS011;64107;49.248;7.006;2023-02-01T07:15:29;4.45;;;2.80;;
75526;SDS011;64107;49.248;7.006;2023-02-01T07:17:55;5.38;;;2.40;;
75526;SDS011;64107;49.248;7.006;2023-02-01T07:20:22;9.30;;;2.88;;
75526;SDS011;64107;49.248;7.006;2023-02-01T07:22:48;6.32;;;2.08;;
75526;SDS011;64107;49.248;7.006;2023-02-01T07:25:19;10.00;;;3.90;;
75526;SDS011;64107;49.248;7.006;2023-02-01T07:27:45;8.43;;;3.20;;
75526;SDS011;64107;49.248;7.006;2023-02-01T07:30:11;10.85;;;3.25;;
75526;SDS011;64107;49.248;7.006;2023-02-01T07:32:37;9.55;;;3.53;;
75526;SDS011;64107;49.248;7.006;2023-02-01T07:35:03;12.65;;;4.38;;
75526;SDS011;64107;49.248;7.006;2023-02-01T07:37:30;1.85;;;1.27;;
75526;SDS011;64107;49.248;7.006;2023-02-01T07:39:56;6.15;;;1.98;;
75526;SDS011;64107;49.248;7.006;2023-02-01T07:42:22;11.73;;;3.45;;
75526;SDS011;64107;49.248;7.006;2023-02-01T07:44:48;10.60;;;3.15;;
75526;SDS011;64107;49.248;7.006;2023-02-01T07:47:14;8.30;;;2.80;;
75526;SDS011;64107;49.248;7.006;2023-02-01T07:49:40;3.17;;;1.70;;
75526;SDS011;64107;49.248;7.006;2023-02-01T07:52:06;6.38;;;2.58;;
75526;SDS011;64107;49.248;7.006;2023-02-01T07:54:32;14.05;;;4.00;;
75526;SDS011;64107;49.248;7.006;2023-02-01T07:56:58;6.22;;;1.52;;
75526;SDS011;64107;49.248;7.006;2023-02-01T07:59:24;8.98;;;2.60;;
75526;SDS011;64107;49.248;7.006;2023-02-01T08:04:16;3.10;;;1.23;;
75526;SDS011;64107;49.248;7.006;2023-02-01T08:09:08;7.10;;;2.20;;
75526;SDS011;64107;49.248;7.006;2023-02-01T08:11:35;9.60;;;3.28;;
75526;SDS011;64107;49.248;7.006;2023-02-01T08:14:02;9.50;;;2.03;;
75526;SDS011;64107;49.248;7.006;2023-02-01T08:16:29;10.30;;;2.53;;
75526;SDS011;64107;49.248;7.006;2023-02-01T08:18:55;16.67;;;1.65;;
75526;SDS011;64107;49.248;7.006;2023-02-01T08:21:22;8.45;;;1.92;;
75526;SDS011;64107;49.248;7.006;2023-02-01T08:23:50;6.28;;;2.40;;
75526;SDS011;64107;49.248;7.006;2023-02-01T08:28:45;21.02;;;4.07;;
75526;SDS011;64107;49.248;7.006;2023-02-01T08:31:16;17.60;;;4.15;;
75526;SDS011;64107;49.248;7.006;2023-02-01T08:33:43;16.55;;;3.70;;
75526;SDS011;64107;49.248;7.006;2023-02-01T08:36:12;3.90;;;1.30;;
75526;SDS011;64107;49.248;7.006;2023-02-01T08:38:38;13.02;;;2.92;;
75526;SDS011;64107;49.248;7.006;2023-02-01T08:41:09;13.13;;;2.95;;
75526;SDS011;64107;49.248;7.006;2023-02-01T08:43:37;14.23;;;3.90;;
75526;SDS011;64107;49.248;7.006;2023-02-01T08:46:04;8.38;;;2.42;;
75526;SDS011;64107;49.248;7.006;2023-02-01T08:48:31;10.75;;;2.65;;
75526;SDS011;64107;49.248;7.006;2023-02-01T08:50:57;4.07;;;1.65;;
75526;SDS011;64107;49.248;7.006;2023-02-01T08:53:25;4.25;;;1.73;;
75526;SDS011;64107;49.248;7.006;2023-02-01T08:55:51;14.48;;;3.65;;
75526;SDS011;64107;49.248;7.006;2023-02-01T08:58:17;13.57;;;2.97;;
75526;SDS011;64107;49.248;7.006;2023-02-01T09:00:44;18.13;;;3.60;;
75526;SDS011;64107;49.248;7.006;2023-02-01T09:03:12;14.35;;;3.55;;
75526;SDS011;64107;49.248;7.006;2023-02-01T09:05:38;14.25;;;2.58;;
75526;SDS011;64107;49.248;7.006;2023-02-01T09:10:31;11.57;;;2.80;;
75526;SDS011;64107;49.248;7.006;2023-02-01T09:12:57;14.20;;;3.60;;
75526;SDS011;64107;49.248;7.006;2023-02-01T09:15:24;8.45;;;3.05;;
75526;SDS011;64107;49.248;7.006;2023-02-01T09:17:50;12.13;;;2.92;;
75526;SDS011;64107;49.248;7.006;2023-02-01T09:20:16;8.40;;;1.65;;
75526;SDS011;64107;49.248;7.006;2023-02-01T09:22:43;10.13;;;2.42;;
75526;SDS011;64107;49.248;7.006;2023-02-01T09:25:09;10.93;;;2.22;;
75526;SDS011;64107;49.248;7.006;2023-02-01T09:27:36;6.65;;;2.15;;
75526;SDS011;64107;49.248;7.006;2023-02-01T09:30:03;14.30;;;2.97;;
75526;SDS011;64107;49.248;7.006;2023-02-01T09:32:29;11.30;;;1.50;;
75526;SDS011;64107;49.248;7.006;2023-02-01T09:34:55;10.73;;;2.58;;
75526;SDS011;64107;49.248;7.006;2023-02-01T09:37:21;12.05;;;3.22;;
75526;SDS011;64107;49.248;7.006;2023-02-01T09:39:48;12.88;;;3.75;;
75526;SDS011;64107;49.248;7.006;2023-02-01T09:43:17;11.68;;;2.75;;
75526;SDS011;64107;49.248;7.006;2023-02-01T09:48:21;8.80;;;2.47;;
75526;SDS011;64107;49.248;7.006;2023-02-01T09:50:56;12.30;;;3.25;;
75526;SDS011;64107;49.248;7.006;2023-02-01T09:53:40;11.75;;;2.45;;
75526;SDS011;64107;49.248;7.006;2023-02-01T09:56:12;8.77;;;2.03;;
75526;SDS011;64107;49.248;7.006;2023-02-01T09:59:01;12.15;;;2.35;;
75526;SDS011;64107;49.248;7.006;2023-02-01T10:01:50;12.48;;;3.78;;
75526;SDS011;64107;49.248;7.006;2023-02-01T10:22:47;17.90;;;3.90;;
75526;SDS011;64107;49.248;7.006;2023-02-01T10:28:00;11.20;;;3.70;;
75526;SDS011;64107;49.248;7.006;2023-02-01T10:30:36;8.43;;;2.80;;
75526;SDS011;64107;49.248;7.006;2023-02-01T10:33:21;16.35;;;3.67;;
75526;SDS011;64107;49.248;7.006;2023-02-01T10:35:59;13.45;;;2.67;;
75526;SDS011;64107;49.248;7.006;2023-02-01T10:38:30;16.70;;;3.50;;
75526;SDS011;64107;49.248;7.006;2023-02-01T10:41:01;6.78;;;1.70;;
75526;SDS011;64107;49.248;7.006;2023-02-01T10:43:34;19.08;;;3.35;;
75526;SDS011;64107;49.248;7.006;2023-02-01T10:46:00;11.48;;;2.70;;
75526;SDS011;64107;49.248;7.006;2023-02-01T10:50:53;10.93;;;2.33;;
75526;SDS011;64107;49.248;7.006;2023-02-01T10:53:24;9.52;;;2.05;;
75526;SDS011;64107;49.248;7.006;2023-02-01T10:55:57;8.30;;;2.05;;
75526;SDS011;64107;49.248;7.006;2023-02-01T10:58:29;11.38;;;1.83;;
75526;SDS011;64107;49.248;7.006;2023-02-01T11:00:57;4.70;;;1.70;;
75526;SDS011;64107;49.248;7.006;2023-02-01T11:08:55;16.67;;;3.28;;
75526;SDS011;64107;49.248;7.006;2023-02-01T11:11:30;10.02;;;2.75;;
75526;SDS011;64107;49.248;7.006;2023-02-01T11:14:02;12.75;;;2.45;;
75526;SDS011;64107;49.248;7.006;2023-02-01T11:16:38;7.88;;;2.22;;
75526;SDS011;64107;49.248;7.006;2023-02-01T11:19:05;6.90;;;1.67;;
75526;SDS011;64107;49.248;7.006;2023-02-01T11:21:32;9.60;;;2.58;;
75526;SDS011;64107;49.248;7.006;2023-02-01T11:24:04;5.13;;;1.23;;
75526;SDS011;64107;49.248;7.006;2023-02-01T11:26:34;11.32;;;1.83;;
75526;SDS011;64107;49.248;7.006;2023-02-01T11:29:09;11.05;;;1.90;;
75526;SDS011;64107;49.248;7.006;2023-02-01T11:31:37;9.50;;;2.22;;
75526;SDS011;64107;49.248;7.006;2023-02-01T11:34:06;4.57;;;1.90;;
75526;SDS011;64107;49.248;7.006;2023-02-01T11:36:36;9.23;;;2.03;;
75526;SDS011;64107;49.248;7.006;2023-02-01T11:44:48;7.53;;;1.65;;
75526;SDS011;64107;49.248;7.006;2023-02-01T11:49:45;7.07;;;2.15;;
75526;SDS011;64107;49.248;7.006;2023-02-01T11:52:15;10.77;;;1.77;;
75526;SDS011;64107;49.248;7.006;2023-02-01T11:54:55;11.15;;;1.38;;
75526;SDS011;64107;49.248;7.006;2023-02-01T12:00:29;7.13;;;2.35;;
75526;SDS011;64107;49.248;7.006;2023-02-01T12:13:38;11.77;;;3.00;;
75526;SDS011;64107;49.248;7.006;2023-02-01T12:16:21;11.18;;;2.80;;
75526;SDS011;64107;49.248;7.006;2023-02-01T12:24:40;11.90;;;3.00;;
75526;SDS011;64107;49.248;7.006;2023-02-01T12:35:26;9.75;;;2.40;;
75526;SDS011;64107;49.248;7.006;2023-02-01T12:38:31;14.20;;;2.30;;
75526;SDS011;64107;49.248;7.006;2023-02-01T12:41:21;10.05;;;2.13;;
75526;SDS011;64107;49.248;7.006;2023-02-01T12:43:59;7.63;;;1.40;;
75526;SDS011;64107;49.248;7.006;2023-02-01T12:49:22;9.18;;;2.13;;
75526;SDS011;64107;49.248;7.006;2023-02-01T12:52:10;11.45;;;2.97;;
75526;SDS011;64107;49.248;7.006;2023-02-01T12:54:49;4.22;;;1.95;;
75526;SDS011;64107;49.248;7.006;2023-02-01T12:57:40;6.95;;;2.05;;
75526;SDS011;64107;49.248;7.006;2023-02-01T13:05:27;5.63;;;1.60;;
75526;SDS011;64107;49.248;7.006;2023-02-01T13:08:10;11.75;;;2.28;;
75526;SDS011;64107;49.248;7.006;2023-02-01T13:10:43;7.97;;;1.75;;
75526;SDS011;64107;49.248;7.006;2023-02-01T13:16:13;6.53;;;1.80;;
75526;SDS011;64107;49.248;7.006;2023-02-01T13:18:41;11.32;;;2.58;;
75526;SDS011;64107;49.248;7.006;2023-02-01T13:21:12;11.20;;;2.40;;
75526;SDS011;64107;49.248;7.006;2023-02-01T13:23:43;2.97;;;1.17;;
75526;SDS011;64107;49.248;7.006;2023-02-01T13:26:11;12.40;;;2.75;;
75526;SDS011;64107;49.248;7.006;2023-02-01T13:28:48;12.32;;;2.03;;
75526;SDS011;64107;49.248;7.006;2023-02-01T13:34:38;8.70;;;1.80;;
75526;SDS011;64107;49.248;7.006;2023-02-01T13:37:38;6.68;;;1.27;;
75526;SDS011;64107;49.248;7.006;2023-02-01T13:40:26;13.07;;;2.67;;
75526;SDS011;64107;49.248;7.006;2023-02-01T13:42:56;7.70;;;2.38;;
75526;SDS011;64107;49.248;7.006;2023-02-01T13:45:25;6.28;;;1.33;;
75526;SDS011;64107;49.248;7.006;2023-02-01T13:47:54;4.25;;;1.42;;
75526;SDS011;64107;49.248;7.006;2023-02-01T13:50:23;11.75;;;3.95;;
75526;SDS011;64107;49.248;7.006;2023-02-01T13:52:55;12.35;;;2.25;;
75526;SDS011;64107;49.248;7.006;2023-02-01T13:55:27;7.22;;;1.80;;
75526;SDS011;64107;49.248;7.006;2023-02-01T13:58:01;5.03;;;1.70;;
75526;SDS011;64107;49.248;7.006;2023-02-01T14:00:39;11.93;;;2.78;;
75526;SDS011;64107;49.248;7.006;2023-02-01T14:03:08;5.65;;;1.75;;
75526;SDS011;64107;49.248;7.006;2023-02-01T14:08:21;3.92;;;1.00;;
75526;SDS011;64107;49.248;7.006;2023-02-01T14:10:54;12.18;;;2.55;;
75526;SDS011;64107;49.248;7.006;2023-02-01T14:36:58;13.63;;;2.85;;
75526;SDS011;64107;49.248;7.006;2023-02-01T14:42:03;3.92;;;1.23;;
75526;SDS011;64107;49.248;7.006;2023-02-01T14:44:32;8.88;;;1.70;;
75526;SDS011;64107;49.248;7.006;2023-02-01T14:47:06;13.77;;;2.50;;
75526;SDS011;64107;49.248;7.006;2023-02-01T14:52:46;12.23;;;2.47;;
75526;SDS011;64107;49.248;7.006;2023-02-01T15:00:55;8.25;;;1.92;;
75526;SDS011;64107;49.248;7.006;2023-02-01T15:06:18;6.57;;;1.40;;
75526;SDS011;64107;49.248;7.006;2023-02-01T15:14:39;9.75;;;1.63;;
75526;SDS011;64107;49.248;7.006;2023-02-01T15:17:20;4.50;;;1.08;;
75526;SDS011;64107;49.248;7.006;2023-02-01T15:22:59;6.20;;;1.77;;
75526;SDS011;64107;49.248;7.006;2023-02-01T15:25:31;3.72;;;1.40;;
75526;SDS011;64107;49.248;7.006;2023-02-01T15:28:00;5.13;;;1.70;;
75526;SDS011;64107;49.248;7.006;2023-02-01T15:33:06;5.05;;;1.45;;
75526;SDS011;64107;49.248;7.006;2023-02-01T15:38:21;6.63;;;1.70;;
75526;SDS011;64107;49.248;7.006;2023-02-01T15:43:23;7.05;;;1.38;;
75526;SDS011;64107;49.248;7.006;2023-02-01T15:45:50;12.27;;;3.30;;
75526;SDS011;64107;49.248;7.006;2023-02-01T15:48:20;9.18;;;2.20;;
75526;SDS011;64107;49.248;7.006;2023-02-01T15:50:47;5.22;;;1.58;;
75526;SDS011;64107;49.248;7.006;2023-02-01T15:53:16;5.45;;;1.48;;
75526;SDS011;64107;49.248;7.006;2023-02-01T15:55:44;10.18;;;1.25;;
75526;SDS011;64107;49.248;7.006;2023-02-01T15:58:17;5.22;;;1.10;;
75526;SDS011;64107;49.248;7.006;2023-02-01T16:00:49;5.65;;;1.33;;
75526;SDS011;64107;49.248;7.006;2023-02-01T16:06:01;11.65;;;2.92;;
75526;SDS011;64107;49.248;7.006;2023-02-01T16:08:31;5.88;;;1.75;;
75526;SDS011;64107;49.248;7.006;2023-02-01T16:13:34;6.00;;;1.42;;
75526;SDS011;64107;49.248;7.006;2023-02-01T16:16:01;8.30;;;1.83;;
75526;SDS011;64107;49.248;7.006;2023-02-01T16:18:28;9.48;;;1.08;;
75526;SDS011;64107;49.248;7.006;2023-02-01T16:23:21;8.60;;;1.67;;
75526;SDS011;64107;49.248;7.006;2023-02-01T16:28:13;7.35;;;2.38;;
75526;SDS011;64107;49.248;7.006;2023-02-01T16:33:05;7.60;;;1.23;;
75526;SDS011;64107;49.248;7.006;2023-02-01T16:35:35;3.83;;;1.50;;
75526;SDS011;64107;49.248;7.006;2023-02-01T16:38:03;10.38;;;2.20;;
75526;SDS011;64107;49.248;7.006;2023-02-01T16:40:36;4.03;;;1.20;;
75526;SDS011;64107;49.248;7.006;2023-02-01T16:43:13;5.20;;;1.40;;
75526;SDS011;64107;49.248;7.006;2023-02-01T16:45:41;6.32;;;2.03;;
75526;SDS011;64107;49.248;7.006;2023-02-01T16:48:23;7.70;;;2.17;;
75526;SDS011;64107;49.248;7.006;2023-02-01T16:50:52;4.65;;;1.02;;
75526;SDS011;64107;49.248;7.006;2023-02-01T16:53:20;3.85;;;1.38;;
75526;SDS011;64107;49.248;7.006;2023-02-01T16:55:46;7.00;;;1.88;;
75526;SDS011;64107;49.248;7.006;2023-02-01T16:58:15;4.32;;;1.17;;
75526;SDS011;64107;49.248;7.006;2023-02-01T17:00:42;4.90;;;1.30;;
75526;SDS011;64107;49.248;7.006;2023-02-01T17:03:09;7.38;;;1.83;;
75526;SDS011;64107;49.248;7.006;2023-02-01T17:05:41;11.95;;;3.10;;
75526;SDS011;64107;49.248;7.006;2023-02-01T17:08:13;4.57;;;1.23;;
75526;SDS011;64107;49.248;7.006;2023-02-01T17:10:45;10.70;;;1.60;;
75526;SDS011;64107;49.248;7.006;2023-02-01T17:13:15;5.85;;;2.10;;
75526;SDS011;64107;49.248;7.006;2023-02-01T17:18:40;7.25;;;2.45;;
75526;SDS011;64107;49.248;7.006;2023-02-01T17:23:33;3.58;;;1.55;;
75526;SDS011;64107;49.248;7.006;2023-02-01T17:28:27;9.95;;;2.53;;
75526;SDS011;64107;49.248;7.006;2023-02-01T17:30:53;4.35;;;1.55;;
75526;SDS011;64107;49.248;7.006;2023-02-01T17:33:24;4.22;;;1.00;;
75526;SDS011;64107;49.248;7.006;2023-02-01T17:35:52;8.88;;;2.00;;
75526;SDS011;64107;49.248;7.006;2023-02-01T17:38:19;6.35;;;1.38;;
75526;SDS011;64107;49.248;7.006;2023-02-01T17:40:45;7.57;;;1.50;;
75526;SDS011;64107;49.248;7.006;2023-02-01T17:45:40;1.73;;;0.70;;
75526;SDS011;64107;49.248;7.006;2023-02-01T17:48:13;8.80;;;2.10;;
75526;SDS011;64107;49.248;7.006;2023-02-01T17:53:06;4.53;;;1.17;;
75526;SDS011;64107;49.248;7.006;2023-02-01T17:55:35;4.80;;;1.42;;
75526;SDS011;64107;49.248;7.006;2023-02-01T17:58:02;7.45;;;2.08;;
75526;SDS011;64107;49.248;7.006;2023-02-01T18:02:54;5.22;;;1.30;;
75526;SDS011;64107;49.248;7.006;2023-02-01T18:05:23;11.32;;;2.05;;
75526;SDS011;64107;49.248;7.006;2023-02-01T18:08:06;8.50;;;1.67;;
75526;SDS011;64107;49.248;7.006;2023-02-01T18:10:33;3.70;;;0.65;;
75526;SDS011;64107;49.248;7.006;2023-02-01T18:13:00;7.90;;;1.30;;
75526;SDS011;64107;49.248;7.006;2023-02-01T18:15:28;7.07;;;0.90;;
75526;SDS011;64107;49.248;7.006;2023-02-01T18:17:55;6.60;;;1.55;;
75526;SDS011;64107;49.248;7.006;2023-02-01T18:20:22;4.43;;;1.17;;
75526;SDS011;64107;49.248;7.006;2023-02-01T18:22:50;9.40;;;2.47;;
75526;SDS011;64107;49.248;7.006;2023-02-01T18:25:20;10.20;;;1.98;;
75526;SDS011;64107;49.248;7.006;2023-02-01T18:27:49;6.30;;;1.27;;
75526;SDS011;64107;49.248;7.006;2023-02-01T18:30:16;3.40;;;0.30;;
75526;SDS011;64107;49.248;7.006;2023-02-01T18:32:46;2.08;;;1.35;;
75526;SDS011;64107;49.248;7.006;2023-02-01T18:37:46;10.20;;;2.03;;
75526;SDS011;64107;49.248;7.006;2023-02-01T18:40:13;4.97;;;1.00;;
75526;SDS011;64107;49.248;7.006;2023-02-01T18:42:41;3.22;;;1.08;;
75526;SDS011;64107;49.248;7.006;2023-02-01T18:45:13;8.98;;;1.17;;
75526;SDS011;64107;49.248;7.006;2023-02-01T18:47:49;10.48;;;1.58;;
75526;SDS011;64107;49.248;7.006;2023-02-01T18:50:16;8.52;;;1.65;;
75526;SDS011;64107;49.248;7.006;2023-02-01T18:52:42;5.82;;;1.33;;
75526;SDS011;64107;49.248;7.006;2023-02-01T18:55:09;9.32;;;1.83;;
75526;SDS011;64107;49.248;7.006;2023-02-01T18:57:35;7.75;;;1.83;;
75526;SDS011;64107;49.248;7.006;2023-02-01T19:00:04;7.85;;;1.80;;
75526;SDS011;64107;49.248;7.006;2023-02-01T19:02:31;11.05;;;2.45;;
75526;SDS011;64107;49.248;7.006;2023-02-01T19:04:57;7.57;;;0.88;;
75526;SDS011;64107;49.248;7.006;2023-02-01T19:07:23;6.63;;;1.30;;
75526;SDS011;64107;49.248;7.006;2023-02-01T19:09:49;5.00;;;2.08;;
75526;SDS011;64107;49.248;7.006;2023-02-01T19:12:15;6.47;;;2.08;;
75526;SDS011;64107;49.248;7.006;2023-02-01T19:14:41;10.63;;;2.05;;
75526;SDS011;64107;49.248;7.006;2023-02-01T19:17:08;3.40;;;1.67;;
75526;SDS011;64107;49.248;7.006;2023-02-01T19:19:34;11.70;;;2.47;;
75526;SDS011;64107;49.248;7.006;2023-02-01T19:22:01;9.90;;;2.22;;
75526;SDS011;64107;49.248;7.006;2023-02-01T19:24:28;6.15;;;0.98;;
75526;SDS011;64107;49.248;7.006;2023-02-01T19:26:55;7.72;;;2.13;;